Disclaimer

Please do not use the information listed here in-flight or in-navigation, as they are not provided to us by the airports but are provided by volunteers, so they might be outdated.

Search


Regions


Airport information page

Radio informations:
CTAF/UNICOM - 126.7 MHz
Melbourne Center - 132.7 MHz

Airport informations:
Latitude: 30° 50' 17.00" S
Longitude: 128° 06' 54.00" E
Elevation: 511 feet - 156 meters
Operating hours: N/A
Operating agency: Civil government, landing fees and diplomatic clearance may be required
Timezone: UTC+8
Fuel: Jet A1, without icing nhibitor.

100/130 MIL Spec, low lead, aviation gasoline (BLUE)

Runway information:
09/27 - 4426 x 148 feet< - >1349 x 45 meters
18/36 - 4984 x 148 feet< - >1519 x 45 meters

Recent METARs:
YFRT 141600Z AUTO 11006KT 9999 // NCD 13/11 Q1023
YFRT 141600Z AUTO 11006KT 9999 // NCD 13/11 Q1023
YFRT 141700Z AUTO 11006KT 9999 // NCD 12/10 Q1022

Airport on the map: